sensor_id;sensor_type;location;lat;lon;timestamp;temperature;humidity
14154;DHT22;7157;53.144;7.570;2023-07-31T00:04:02;17.62;95.39
14154;DHT22;7157;53.144;7.570;2023-07-31T00:14:07;17.34;96.22
14154;DHT22;7157;53.144;7.570;2023-07-31T00:24:10;17.46;95.09
14154;DHT22;7157;53.144;7.570;2023-07-31T00:34:14;17.45;95.23
14154;DHT22;7157;53.144;7.570;2023-07-31T00:44:16;17.32;95.33
14154;DHT22;7157;53.144;7.570;2023-07-31T00:54:20;17.13;95.99
14154;DHT22;7157;53.144;7.570;2023-07-31T01:04:23;16.86;97.66
14154;DHT22;7157;53.144;7.570;2023-07-31T01:14:27;16.48;100.44
14154;DHT22;7157;53.144;7.570;2023-07-31T01:24:36;16.26;102.45
14154;DHT22;7157;53.144;7.570;2023-07-31T01:34:44;16.08;104.03
14154;DHT22;7157;53.144;7.570;2023-07-31T01:44:48;15.99;105.46
14154;DHT22;7157;53.144;7.570;2023-07-31T01:54:52;15.96;105.42
14154;DHT22;7157;53.144;7.570;2023-07-31T02:04:55;15.98;105.89
14154;DHT22;7157;53.144;7.570;2023-07-31T02:14:59;15.88;107.04
14154;DHT22;7157;53.144;7.570;2023-07-31T02:25:02;15.95;107.12
14154;DHT22;7157;53.144;7.570;2023-07-31T02:35:07;16.06;107.10
14154;DHT22;7157;53.144;7.570;2023-07-31T02:45:09;16.03;107.79
14154;DHT22;7157;53.144;7.570;2023-07-31T02:55:14;15.99;108.23
14154;DHT22;7157;53.144;7.570;2023-07-31T03:05:16;16.00;108.43
14154;DHT22;7157;53.144;7.570;2023-07-31T03:15:20;16.05;108.38
14154;DHT22;7157;53.144;7.570;2023-07-31T03:25:23;16.15;108.30
14154;DHT22;7157;53.144;7.570;2023-07-31T03:35:27;16.06;108.72
14154;DHT22;7157;53.144;7.570;2023-07-31T03:45:30;16.06;109.01
14154;DHT22;7157;53.144;7.570;2023-07-31T03:55:34;15.99;109.08
14154;DHT22;7157;53.144;7.570;2023-07-31T04:05:38;16.02;109.33
14154;DHT22;7157;53.144;7.570;2023-07-31T04:15:42;16.01;109.47
14154;DHT22;7157;53.144;7.570;2023-07-31T04:25:45;16.02;109.71
14154;DHT22;7157;53.144;7.570;2023-07-31T04:35:53;15.98;109.88
14154;DHT22;7157;53.144;7.570;2023-07-31T04:45:55;16.06;110.24
14154;DHT22;7157;53.144;7.570;2023-07-31T04:56:00;16.20;109.91
14154;DHT22;7157;53.144;7.570;2023-07-31T05:06:03;16.28;109.78
14154;DHT22;7157;53.144;7.570;2023-07-31T05:16:07;16.41;109.62
14154;DHT22;7157;53.144;7.570;2023-07-31T05:26:10;16.60;109.44
14154;DHT22;7157;53.144;7.570;2023-07-31T05:36:15;16.56;109.65
14154;DHT22;7157;53.144;7.570;2023-07-31T05:46:17;16.64;109.79
14154;DHT22;7157;53.144;7.570;2023-07-31T05:56:21;16.67;109.59
14154;DHT22;7157;53.144;7.570;2023-07-31T06:06:24;16.73;109.88
14154;DHT22;7157;53.144;7.570;2023-07-31T06:16:28;16.82;109.73
14154;DHT22;7157;53.144;7.570;2023-07-31T06:26:31;16.92;109.81
14154;DHT22;7157;53.144;7.570;2023-07-31T06:36:35;16.93;110.00
14154;DHT22;7157;53.144;7.570;2023-07-31T06:46:38;16.94;110.01
14154;DHT22;7157;53.144;7.570;2023-07-31T06:56:43;17.00;110.47
14154;DHT22;7157;53.144;7.570;2023-07-31T07:06:46;17.16;110.94
14154;DHT22;7157;53.144;7.570;2023-07-31T07:16:52;17.24;110.78
14154;DHT22;7157;53.144;7.570;2023-07-31T07:26:54;17.37;110.68
14154;DHT22;7157;53.144;7.570;2023-07-31T07:36:59;17.52;110.78
14154;DHT22;7157;53.144;7.570;2023-07-31T07:47:01;17.74;110.53
14154;DHT22;7157;53.144;7.570;2023-07-31T07:57:06;17.58;110.43
14154;DHT22;7157;53.144;7.570;2023-07-31T08:07:10;17.52;110.10
14154;DHT22;7157;53.144;7.570;2023-07-31T08:17:14;17.76;109.67
14154;DHT22;7157;53.144;7.570;2023-07-31T08:27:17;17.99;109.18
14154;DHT22;7157;53.144;7.570;2023-07-31T08:37:21;18.04;108.74
14154;DHT22;7157;53.144;7.570;2023-07-31T08:47:24;17.63;108.97
14154;DHT22;7157;53.144;7.570;2023-07-31T08:57:28;17.47;109.44
14154;DHT22;7157;53.144;7.570;2023-07-31T09:07:32;17.65;109.44
14154;DHT22;7157;53.144;7.570;2023-07-31T09:17:40;17.64;109.41
14154;DHT22;7157;53.144;7.570;2023-07-31T09:27:47;17.90;108.72
14154;DHT22;7157;53.144;7.570;2023-07-31T09:37:52;18.35;108.01
14154;DHT22;7157;53.144;7.570;2023-07-31T09:47:56;18.61;107.30
14154;DHT22;7157;53.144;7.570;2023-07-31T09:58:03;18.68;106.91
14154;DHT22;7157;53.144;7.570;2023-07-31T10:08:09;18.83;106.82
14154;DHT22;7157;53.144;7.570;2023-07-31T10:18:14;18.92;106.46
14154;DHT22;7157;53.144;7.570;2023-07-31T10:28:17;19.13;105.19
14154;DHT22;7157;53.144;7.570;2023-07-31T10:38:23;19.28;105.29
14154;DHT22;7157;53.144;7.570;2023-07-31T10:48:33;19.21;106.12
14154;DHT22;7157;53.144;7.570;2023-07-31T10:58:37;19.01;107.27
14154;DHT22;7157;53.144;7.570;2023-07-31T11:08:44;19.17;107.75
14154;DHT22;7157;53.144;7.570;2023-07-31T11:18:49;19.38;108.20
14154;DHT22;7157;53.144;7.570;2023-07-31T11:28:53;19.37;108.36
14154;DHT22;7157;53.144;7.570;2023-07-31T11:39:04;19.69;107.90
14154;DHT22;7157;53.144;7.570;2023-07-31T11:49:07;19.94;107.87
14154;DHT22;7157;53.144;7.570;2023-07-31T11:59:11;20.01;107.58
14154;DHT22;7157;53.144;7.570;2023-07-31T12:09:15;19.89;108.20
14154;DHT22;7157;53.144;7.570;2023-07-31T12:19:20;19.84;108.03
14154;DHT22;7157;53.144;7.570;2023-07-31T12:29:22;19.61;108.71
14154;DHT22;7157;53.144;7.570;2023-07-31T12:39:26;19.24;109.84
14154;DHT22;7157;53.144;7.570;2023-07-31T12:49:29;19.43;109.89
14154;DHT22;7157;53.144;7.570;2023-07-31T12:59:33;19.24;110.39
14154;DHT22;7157;53.144;7.570;2023-07-31T13:09:36;19.76;109.66
14154;DHT22;7157;53.144;7.570;2023-07-31T13:19:40;20.15;109.28
14154;DHT22;7157;53.144;7.570;2023-07-31T13:29:42;20.11;109.04
14154;DHT22;7157;53.144;7.570;2023-07-31T13:39:47;19.76;108.68
14154;DHT22;7157;53.144;7.570;2023-07-31T13:49:49;19.79;108.26
14154;DHT22;7157;53.144;7.570;2023-07-31T13:59:53;19.89;107.33
14154;DHT22;7157;53.144;7.570;2023-07-31T14:09:56;19.81;107.43
14154;DHT22;7157;53.144;7.570;2023-07-31T14:20:00;20.26;107.13
14154;DHT22;7157;53.144;7.570;2023-07-31T14:30:06;20.80;104.18
14154;DHT22;7157;53.144;7.570;2023-07-31T14:40:12;20.64;103.70
14154;DHT22;7157;53.144;7.570;2023-07-31T14:50:15;20.79;103.97
14154;DHT22;7157;53.144;7.570;2023-07-31T15:00:23;20.51;104.08
14154;DHT22;7157;53.144;7.570;2023-07-31T15:10:25;20.86;104.50
14154;DHT22;7157;53.144;7.570;2023-07-31T15:20:30;20.91;103.56
14154;DHT22;7157;53.144;7.570;2023-07-31T15:30:34;20.91;103.02
14154;DHT22;7157;53.144;7.570;2023-07-31T15:40:38;20.94;103.73
14154;DHT22;7157;53.144;7.570;2023-07-31T15:50:40;20.91;103.91
14154;DHT22;7157;53.144;7.570;2023-07-31T16:00:44;21.17;102.62
14154;DHT22;7157;53.144;7.570;2023-07-31T16:10:47;21.08;101.70
14154;DHT22;7157;53.144;7.570;2023-07-31T16:20:51;20.98;100.53
14154;DHT22;7157;53.144;7.570;2023-07-31T16:30:56;21.03;101.23
14154;DHT22;7157;53.144;7.570;2023-07-31T16:41:00;20.79;100.83
14154;DHT22;7157;53.144;7.570;2023-07-31T16:51:03;20.64;101.40
14154;DHT22;7157;53.144;7.570;2023-07-31T17:01:07;20.57;101.61
14154;DHT22;7157;53.144;7.570;2023-07-31T17:11:10;20.35;101.67
14154;DHT22;7157;53.144;7.570;2023-07-31T17:21:14;20.30;101.54
14154;DHT22;7157;53.144;7.570;2023-07-31T17:31:17;20.19;101.24
14154;DHT22;7157;53.144;7.570;2023-07-31T17:41:22;19.98;101.88
14154;DHT22;7157;53.144;7.570;2023-07-31T17:51:27;19.66;103.12
14154;DHT22;7157;53.144;7.570;2023-07-31T18:01:31;19.68;103.05
14154;DHT22;7157;53.144;7.570;2023-07-31T18:11:38;19.55;103.60
14154;DHT22;7157;53.144;7.570;2023-07-31T18:21:42;19.18;104.79
14154;DHT22;7157;53.144;7.570;2023-07-31T18:31:45;18.88;106.62
14154;DHT22;7157;53.144;7.570;2023-07-31T18:41:49;18.79;107.58
14154;DHT22;7157;53.144;7.570;2023-07-31T18:51:52;18.73;108.06
14154;DHT22;7157;53.144;7.570;2023-07-31T19:01:56;18.55;108.90
14154;DHT22;7157;53.144;7.570;2023-07-31T19:11:59;18.47;109.31
14154;DHT22;7157;53.144;7.570;2023-07-31T19:22:03;18.40;109.43
14154;DHT22;7157;53.144;7.570;2023-07-31T19:32:06;18.48;109.35
14154;DHT22;7157;53.144;7.570;2023-07-31T19:42:10;18.36;110.10
14154;DHT22;7157;53.144;7.570;2023-07-31T19:52:13;18.34;110.17
14154;DHT22;7157;53.144;7.570;2023-07-31T20:02:17;18.27;110.47
14154;DHT22;7157;53.144;7.570;2023-07-31T20:12:20;18.15;110.43
14154;DHT22;7157;53.144;7.570;2023-07-31T20:22:25;18.02;110.53
14154;DHT22;7157;53.144;7.570;2023-07-31T20:32:27;17.92;110.39
14154;DHT22;7157;53.144;7.570;2023-07-31T20:42:32;17.85;110.78
14154;DHT22;7157;53.144;7.570;2023-07-31T20:52:34;17.89;110.91
14154;DHT22;7157;53.144;7.570;2023-07-31T21:02:38;17.94;111.04
14154;DHT22;7157;53.144;7.570;2023-07-31T21:12:41;17.96;111.25
14154;DHT22;7157;53.144;7.570;2023-07-31T21:22:59;17.95;111.21
14154;DHT22;7157;53.144;7.570;2023-07-31T21:33:08;17.93;111.44
14154;DHT22;7157;53.144;7.570;2023-07-31T21:43:12;17.91;111.68
14154;DHT22;7157;53.144;7.570;2023-07-31T21:53:15;17.94;111.57
14154;DHT22;7157;53.144;7.570;2023-07-31T22:03:19;17.98;111.16
14154;DHT22;7157;53.144;7.570;2023-07-31T22:13:22;17.90;111.26
14154;DHT22;7157;53.144;7.570;2023-07-31T22:23:26;17.91;111.02
14154;DHT22;7157;53.144;7.570;2023-07-31T22:33:29;17.90;111.03
14154;DHT22;7157;53.144;7.570;2023-07-31T22:43:34;17.95;110.87
14154;DHT22;7157;53.144;7.570;2023-07-31T22:53:37;17.96;110.97
14154;DHT22;7157;53.144;7.570;2023-07-31T23:03:41;17.81;110.95
14154;DHT22;7157;53.144;7.570;2023-07-31T23:13:44;17.74;111.31
14154;DHT22;7157;53.144;7.570;2023-07-31T23:23:48;17.83;111.20
14154;DHT22;7157;53.144;7.570;2023-07-31T23:33:51;17.76;111.07
14154;DHT22;7157;53.144;7.570;2023-07-31T23:43:58;17.76;110.92
14154;DHT22;7157;53.144;7.570;2023-07-31T23:54:01;17.78;111.03
